Time;durP1;ratioP1;P1;durP2;ratioP2;P2;SDS_P1;SDS_P2;PMS_P1;PMS_P2;Temp;Humidity;BMP_temperature;BMP_pressure;BME280_temperature;BME280_humidity;BME280_pressure;Samples;Min_cycle;Max_cycle;Signal;HPM_P1;HPM_P2
2023/10/08 00:01:55;;;;;;;4.50;2.72;;;;;;;16.47;44.72;96446.50;6160068;23;20157;-80
2023/10/08 00:04:21;;;;;;;5.95;2.35;;;;;;;16.52;44.78;96438.13;6207330;23;20210;-81
2023/10/08 00:06:52;;;;;;;7.60;2.95;;;;;;;16.56;44.42;96436.84;6183407;23;20170;-79
2023/10/08 00:09:20;;;;;;;5.93;2.63;;;;;;;16.72;44.54;96430.81;6160094;23;20231;-79
2023/10/08 00:11:51;;;;;;;5.15;2.67;;;;;;;16.84;44.11;96434.75;6159538;23;20166;-80
2023/10/08 00:14:21;;;;;;;5.50;2.78;;;;;;;16.98;43.55;96434.09;6201482;23;20134;-79
2023/10/08 00:16:49;;;;;;;7.28;3.10;;;;;;;17.03;43.70;96431.78;6211950;23;20159;-79
2023/10/08 00:19:17;;;;;;;6.28;3.00;;;;;;;17.00;44.18;96429.50;6187330;23;20250;-79
2023/10/08 00:21:44;;;;;;;10.52;3.65;;;;;;;17.09;43.81;96431.13;6186147;23;20139;-79
2023/10/08 00:24:10;;;;;;;10.02;3.03;;;;;;;17.11;43.54;96437.00;6191981;23;20603;-80
2023/10/08 00:26:39;;;;;;;5.95;2.97;;;;;;;17.12;43.82;96428.16;6168110;23;20189;-80
2023/10/08 00:29:06;;;;;;;7.25;2.80;;;;;;;17.10;44.52;96430.13;6164240;23;20245;-80
2023/10/08 00:31:37;;;;;;;5.50;2.63;;;;;;;17.12;44.50;96437.81;6212704;23;20162;-80
2023/10/08 00:34:05;;;;;;;6.97;2.80;;;;;;;17.06;44.88;96430.63;6163145;23;20212;-81
2023/10/08 00:36:31;;;;;;;4.65;2.90;;;;;;;16.96;44.96;96431.63;6162638;23;20182;-80
2023/10/08 00:39:00;;;;;;;6.13;2.70;;;;;;;16.86;45.28;96424.91;6162234;23;20253;-81
2023/10/08 00:41:30;;;;;;;5.10;2.58;;;;;;;16.81;45.34;96430.66;6188808;23;20159;-81
2023/10/08 00:43:59;;;;;;;8.80;3.10;;;;;;;16.76;45.62;96425.06;6186362;23;20197;-81
2023/10/08 00:46:29;;;;;;;5.75;3.00;;;;;;;16.70;45.95;96418.69;6187173;23;20253;-81
2023/10/08 00:48:54;;;;;;;5.80;2.50;;;;;;;16.68;46.05;96425.88;6160404;23;20559;-80
2023/10/08 00:53:57;;;;;;;8.07;2.75;;;;;;;16.72;46.40;96420.34;6207454;23;20162;-80
2023/10/08 00:56:25;;;;;;;4.88;2.97;;;;;;;16.75;46.68;96417.38;6182654;23;20213;-80
2023/10/08 00:58:53;;;;;;;5.50;2.70;;;;;;;16.76;46.86;96414.56;6157749;23;20178;-80
2023/10/08 01:01:20;;;;;;;5.30;2.40;;;;;;;16.73;47.66;96414.09;6158043;23;20173;-80
2023/10/08 01:03:49;;;;;;;5.53;2.65;;;;;;;16.76;47.48;96411.13;6181914;23;20158;-80
2023/10/08 01:06:18;;;;;;;5.50;2.70;;;;;;;16.76;47.74;96401.47;6158065;23;20185;-80
2023/10/08 01:08:47;;;;;;;7.03;2.40;;;;;;;16.80;47.80;96401.97;6158788;23;20150;-80
2023/10/08 01:11:39;;;;;;;5.30;2.50;;;;;;;16.74;48.35;96395.56;6182904;23;20205;-80
2023/10/08 01:14:07;;;;;;;6.95;2.55;;;;;;;16.71;48.62;96403.78;6183989;23;20169;-80
2023/10/08 01:16:34;;;;;;;6.72;2.50;;;;;;;16.75;48.93;96404.25;6182552;23;20175;-80
2023/10/08 01:19:00;;;;;;;5.30;2.60;;;;;;;16.78;48.88;96398.66;6182368;23;20586;-81
2023/10/08 01:21:34;;;;;;;4.75;2.35;;;;;;;16.91;48.89;96396.38;6182085;23;20172;-79
2023/10/08 01:24:02;;;;;;;5.25;3.03;;;;;;;17.00;48.14;96395.38;6182027;23;20145;-79
2023/10/08 01:26:31;;;;;;;6.40;2.92;;;;;;;17.02;48.53;96393.41;6182556;23;20189;-79
2023/10/08 01:28:56;;;;;;;6.75;3.00;;;;;;;17.08;48.23;96392.75;6184174;23;20158;-79
2023/10/08 01:31:22;;;;;;;3.78;2.22;;;;;;;17.08;48.31;96395.38;6157657;23;20667;-80
2023/10/08 01:33:49;;;;;;;5.40;2.33;;;;;;;17.07;48.51;96390.28;6182035;23;20151;-79
2023/10/08 01:36:15;;;;;;;6.55;2.60;;;;;;;17.12;47.92;96396.66;6157852;23;20262;-80
2023/10/08 01:38:41;;;;;;;7.50;3.13;;;;;;;17.11;48.11;96400.28;6157273;23;20261;-79
2023/10/08 01:41:18;;;;;;;4.88;2.10;;;;;;;17.09;48.47;96398.81;6158366;23;20169;-80
2023/10/08 01:43:44;;;;;;;5.00;2.33;;;;;;;17.03;48.21;96404.72;6182215;23;20135;-80
2023/10/08 01:46:11;;;;;;;5.40;2.42;;;;;;;17.00;48.64;96405.88;6158318;23;20526;-81
2023/10/08 01:48:41;;;;;;;5.00;2.50;;;;;;;16.96;48.62;96407.19;6182713;23;20624;-81
2023/10/08 01:51:11;;;;;;;4.20;2.33;;;;;;;16.92;49.36;96398.00;6182559;23;20238;-80
2023/10/08 01:53:38;;;;;;;5.13;2.58;;;;;;;16.86;49.51;96403.91;6181318;23;20165;-80
2023/10/08 01:56:04;;;;;;;4.53;2.10;;;;;;;16.81;49.36;96406.22;6182500;23;20233;-80
2023/10/08 01:58:29;;;;;;;6.40;2.40;;;;;;;16.75;50.11;96404.25;6182782;23;20174;-81
2023/10/08 02:00:59;;;;;;;5.38;2.10;;;;;;;16.72;49.95;96402.78;6185151;23;20607;-80
2023/10/08 02:03:24;;;;;;;9.35;2.78;;;;;;;16.67;50.00;96398.00;6159993;23;20522;-81
2023/10/08 02:05:53;;;;;;;6.70;2.40;;;;;;;16.64;50.34;96403.56;6184898;23;20265;-81
2023/10/08 02:08:18;;;;;;;5.30;2.42;;;;;;;16.66;50.27;96400.78;6160420;23;20154;-80
2023/10/08 02:10:46;;;;;;;4.47;2.25;;;;;;;16.68;50.44;96399.66;6160404;23;20189;-80
2023/10/08 02:13:13;;;;;;;5.25;2.30;;;;;;;16.74;50.75;96400.81;6185060;23;20155;-80
2023/10/08 02:15:45;;;;;;;6.10;2.15;;;;;;;16.69;50.86;96395.22;6186497;23;20233;-80
2023/10/08 02:18:10;;;;;;;3.63;2.05;;;;;;;16.73;50.81;96393.94;6213250;23;20179;-80
2023/10/08 02:20:36;;;;;;;5.78;2.50;;;;;;;16.73;51.11;96398.38;6162486;23;20254;-80
2023/10/08 02:23:01;;;;;;;5.05;2.30;;;;;;;16.73;50.73;96395.75;6186067;23;20150;-80
2023/10/08 02:25:27;;;;;;;3.20;1.92;;;;;;;16.76;50.99;96395.41;6189109;23;20174;-80
2023/10/08 02:27:53;;;;;;;4.57;1.67;;;;;;;16.80;50.85;96391.47;6161155;23;20174;-80
2023/10/08 02:30:18;;;;;;;6.30;2.03;;;;;;;16.79;51.09;96389.84;6161457;23;20165;-80
2023/10/08 02:32:45;;;;;;;6.25;2.20;;;;;;;16.76;51.17;96400.66;6199308;23;20159;-79
2023/10/08 02:35:11;;;;;;;4.85;2.22;;;;;;;16.73;51.11;96395.75;6212435;23;20134;-79
2023/10/08 02:37:39;;;;;;;5.25;2.05;;;;;;;16.70;51.16;96399.53;6186778;23;20178;-80
2023/10/08 02:40:26;;;;;;;5.05;2.30;;;;;;;16.72;51.48;96399.34;6226944;23;20201;-80
2023/10/08 02:42:57;;;;;;;5.35;2.38;;;;;;;16.70;51.10;96400.34;6206014;23;20154;-80
2023/10/08 02:45:25;;;;;;;6.65;2.63;;;;;;;16.67;51.51;96407.66;6209094;23;20157;-80
2023/10/08 02:47:52;;;;;;;5.82;1.92;;;;;;;16.68;51.43;96402.28;6168459;23;20170;-80
2023/10/08 02:50:18;;;;;;;5.32;2.22;;;;;;;16.64;51.84;96400.97;6188204;23;20226;-80
2023/10/08 02:52:46;;;;;;;6.32;2.53;;;;;;;16.60;51.28;96404.06;6186267;23;20157;-80
2023/10/08 02:55:25;;;;;;;6.57;2.30;;;;;;;16.62;51.25;96405.56;6161075;23;20155;-79
2023/10/08 02:57:51;;;;;;;4.95;1.90;;;;;;;16.52;51.75;96404.91;6187426;23;20169;-81
2023/10/08 03:00:20;;;;;;;3.80;2.22;;;;;;;16.48;51.66;96419.31;6185905;23;20217;-81
2023/10/08 03:02:48;;;;;;;5.90;2.22;;;;;;;16.41;52.09;96411.25;6185230;23;20441;-80
2023/10/08 03:05:16;;;;;;;3.58;2.15;;;;;;;16.34;52.25;96407.66;6184895;23;20169;-81
2023/10/08 03:07:41;;;;;;;4.78;2.47;;;;;;;16.34;52.23;96410.28;6161154;23;20499;-80
2023/10/08 03:10:17;;;;;;;4.18;2.10;;;;;;;16.25;52.56;96413.03;6160160;23;20213;-80
2023/10/08 03:12:43;;;;;;;3.95;2.35;;;;;;;16.22;52.81;96413.38;6185050;23;20151;-80
2023/10/08 03:18:10;;;;;;;3.83;2.28;;;;;;;16.19;53.18;96400.59;6113093;23;21098;-79
2023/10/08 03:20:41;;;;;;;6.78;2.70;;;;;;;16.17;53.30;96403.38;6119739;23;20247;-80
2023/10/08 03:23:23;;;;;;;4.18;2.25;;;;;;;16.14;53.49;96396.66;6071102;23;20200;-80
2023/10/08 03:26:09;;;;;;;4.72;2.40;;;;;;;16.17;53.63;96395.53;6074203;23;20183;-79
2023/10/08 03:28:34;;;;;;;5.53;2.45;;;;;;;16.17;53.72;96394.69;6116992;23;20172;-81
2023/10/08 03:31:13;;;;;;;3.42;1.83;;;;;;;16.18;53.50;96397.16;6071140;23;20164;-81
2023/10/08 03:33:39;;;;;;;3.72;2.30;;;;;;;16.19;53.33;96400.59;6116594;23;20321;-81
2023/10/08 03:38:51;;;;;;;5.07;2.08;;;;;;;16.24;53.32;96406.16;5060689;28;20552;-80
2023/10/08 03:41:18;;;;;;;3.25;1.95;;;;;;;16.28;53.31;96412.75;5062134;28;20202;-79
2023/10/08 03:43:53;;;;;;;4.50;2.35;;;;;;;16.28;53.53;96407.50;5054201;28;20583;-80
2023/10/08 03:46:21;;;;;;;6.55;2.47;;;;;;;16.25;53.35;96406.00;5050396;28;20206;-80
2023/10/08 03:48:50;;;;;;;5.85;2.38;;;;;;;16.22;53.14;96405.50;5039442;28;20350;-80
2023/10/08 03:51:22;;;;;;;3.95;2.22;;;;;;;16.23;53.08;96415.00;5040483;28;20191;-80
2023/10/08 03:54:10;;;;;;;4.20;2.15;;;;;;;16.27;53.06;96405.84;5049180;28;20272;-80
2023/10/08 03:56:36;;;;;;;5.15;2.30;;;;;;;16.31;52.61;96396.69;5046040;28;20202;-80
2023/10/08 03:59:20;;;;;;;6.30;2.78;;;;;;;16.34;52.29;96398.97;5036421;28;20233;-80
2023/10/08 04:01:48;;;;;;;8.00;2.63;;;;;;;16.54;51.86;96402.09;5042762;28;20555;-80
2023/10/08 04:04:14;;;;;;;4.25;2.63;;;;;;;16.58;51.45;96403.41;5044496;28;20625;-79
2023/10/08 04:06:48;;;;;;;5.20;2.70;;;;;;;16.64;51.12;96405.38;5031515;28;20202;-80
2023/10/08 04:09:23;;;;;;;5.90;2.67;;;;;;;16.69;51.07;96403.09;5033434;28;20201;-80
2023/10/08 04:14:24;;;;;;;7.60;2.70;;;;;;;16.84;50.20;96403.25;5040729;28;20265;-80
2023/10/08 04:16:52;;;;;;;7.47;2.75;;;;;;;16.84;49.43;96392.78;5036977;28;20197;-80
2023/10/08 04:19:26;;;;;;;6.50;2.83;;;;;;;17.00;49.04;96398.00;5032430;28;20186;-80
2023/10/08 04:21:55;;;;;;;6.40;2.65;;;;;;;17.05;48.87;96395.72;5029088;28;20186;-80
2023/10/08 04:24:34;;;;;;;4.70;3.08;;;;;;;17.13;48.36;96393.03;5021792;28;20193;-80
2023/10/08 04:27:01;;;;;;;6.95;3.13;;;;;;;17.14;48.05;96393.84;5048180;28;20210;-80
2023/10/08 04:29:31;;;;;;;7.82;3.05;;;;;;;17.15;47.66;96387.66;5046389;28;20190;-80
2023/10/08 04:32:11;;;;;;;7.55;2.80;;;;;;;17.16;47.83;96387.47;5052332;28;20680;-80
2023/10/08 04:34:37;;;;;;;4.15;2.70;;;;;;;17.18;47.30;96379.44;5031267;28;20278;-80
2023/10/08 04:37:10;;;;;;;5.63;3.17;;;;;;;17.23;47.34;96383.19;5042423;28;20271;-80
2023/10/08 04:39:39;;;;;;;4.80;2.55;;;;;;;17.28;47.22;96380.06;5044267;28;20186;-80
2023/10/08 04:42:10;;;;;;;6.90;2.67;;;;;;;17.26;47.00;96385.47;5028335;28;20213;-80
2023/10/08 04:44:38;;;;;;;5.28;3.42;;;;;;;17.29;46.50;96381.69;5033355;28;20214;-81
2023/10/08 04:47:08;;;;;;;6.38;2.70;;;;;;;17.34;46.41;96383.81;5041721;28;20211;-81
2023/10/08 04:49:34;;;;;;;6.05;3.17;;;;;;;17.34;46.62;96394.31;5030389;28;20183;-81
2023/10/08 04:52:08;;;;;;;7.20;3.05;;;;;;;17.44;45.98;96393.13;5026700;28;20183;-80
2023/10/08 04:54:39;;;;;;;6.15;2.65;;;;;;;17.49;46.44;96388.19;5027712;28;20533;-80
2023/10/08 04:57:06;;;;;;;7.60;3.15;;;;;;;17.47;46.57;96398.03;5023067;28;20294;-80
2023/10/08 04:59:34;;;;;;;3.78;2.60;;;;;;;17.46;46.48;96398.22;5023528;28;20198;-80
2023/10/08 05:02:19;;;;;;;6.20;3.13;;;;;;;17.41;46.82;96401.34;5010379;28;20270;-80
2023/10/08 05:07:21;;;;;;;7.65;3.42;;;;;;;17.31;47.31;96402.50;5031699;28;20227;-80
2023/10/08 05:12:50;;;;;;;5.75;2.78;;;;;;;17.31;47.67;96418.25;5028768;28;20187;-80
2023/10/08 05:17:57;;;;;;;8.00;3.35;;;;;;;17.20;47.79;96417.63;5024154;28;20680;-80
2023/10/08 05:20:40;;;;;;;11.45;5.75;;;;;;;17.19;47.73;96418.63;5015680;28;20198;-81
2023/10/08 05:25:58;;;;;;;10.93;7.10;;;;;;;17.14;48.39;96410.47;5032479;28;20284;-81
2023/10/08 05:28:26;;;;;;;9.50;3.92;;;;;;;17.13;47.98;96410.59;5013422;28;20186;-80
2023/10/08 05:31:11;;;;;;;4.80;2.75;;;;;;;17.15;47.74;96411.28;5022179;28;20244;-80
2023/10/08 05:33:59;;;;;;;7.00;2.95;;;;;;;17.10;47.96;96414.38;5016328;28;20183;-81
2023/10/08 05:36:34;;;;;;;6.63;3.55;;;;;;;17.14;47.44;96420.94;5016956;28;20241;-80
2023/10/08 05:39:20;;;;;;;7.15;3.47;;;;;;;17.13;47.75;96421.91;5019454;28;20190;-80
2023/10/08 05:41:51;;;;;;;6.40;3.00;;;;;;;17.18;47.60;96416.19;5025778;28;20198;-80
2023/10/08 05:44:24;;;;;;;7.63;3.30;;;;;;;17.26;47.91;96422.22;5019489;28;20190;-79
2023/10/08 06:13:06;;;;;;;7.15;4.25;;;;;;;17.77;45.29;96427.19;5026628;28;20186;-79
2023/10/08 06:15:51;;;;;;;8.60;3.33;;;;;;;17.84;44.83;96433.38;5034815;28;20206;-78
2023/10/08 06:18:25;;;;;;;8.77;3.67;;;;;;;17.90;44.33;96437.13;5017931;28;20268;-79
2023/10/08 06:21:00;;;;;;;6.45;2.97;;;;;;;17.88;44.10;96428.63;5011605;28;20198;-78
2023/10/08 06:23:28;;;;;;;7.18;3.60;;;;;;;17.99;44.28;96423.78;5027056;28;20239;-79
2023/10/08 06:25:56;;;;;;;7.35;3.65;;;;;;;18.07;43.91;96422.94;5034043;28;20209;-78
2023/10/08 06:28:25;;;;;;;8.57;4.22;;;;;;;18.21;43.81;96422.19;5016150;28;20214;-80
2023/10/08 06:30:54;;;;;;;8.10;3.83;;;;;;;18.28;43.54;96425.75;5034111;28;20265;-80
2023/10/08 06:33:33;;;;;;;7.22;3.33;;;;;;;18.33;43.35;96423.44;5020730;28;20182;-80
2023/10/08 06:36:02;;;;;;;7.95;3.65;;;;;;;18.42;42.52;96415.47;5029640;28;20419;-80
2023/10/08 06:38:32;;;;;;;11.82;4.05;;;;;;;18.51;42.48;96415.25;5019175;28;20269;-79
2023/10/08 06:43:53;;;;;;;9.82;3.47;;;;;;;18.88;41.60;96419.75;5020039;28;20252;-79
2023/10/08 06:46:21;;;;;;;9.95;3.30;;;;;;;19.01;41.92;96421.78;5029512;28;20207;-81
2023/10/08 06:48:49;;;;;;;8.57;3.90;;;;;;;19.04;41.28;96423.22;5013292;28;20588;-79
2023/10/08 06:51:18;;;;;;;9.13;3.83;;;;;;;19.20;41.04;96434.44;5028726;28;20745;-82
2023/10/08 06:53:46;;;;;;;10.68;4.00;;;;;;;19.27;40.70;96441.63;5020050;28;20719;-79
2023/10/08 06:56:16;;;;;;;7.93;3.65;;;;;;;19.31;40.13;96433.16;5029175;28;20207;-82
2023/10/08 06:58:49;;;;;;;8.18;3.42;;;;;;;19.43;39.59;96431.72;5040753;28;20352;-79
2023/10/08 07:01:21;;;;;;;10.30;3.45;;;;;;;19.51;39.77;96436.88;5029050;28;20194;-80
2023/10/08 07:03:51;;;;;;;8.63;3.55;;;;;;;19.53;39.34;96427.00;5014460;28;20186;-79
2023/10/08 07:06:31;;;;;;;10.15;3.65;;;;;;;19.59;38.67;96419.41;5027955;28;20202;-79
2023/10/08 07:08:59;;;;;;;8.57;3.45;;;;;;;19.74;39.59;96422.84;5014889;28;20194;-80
2023/10/08 07:11:26;;;;;;;14.43;4.18;;;;;;;19.68;39.88;96423.56;5028793;28;20642;-79
2023/10/08 07:13:52;;;;;;;13.98;3.90;;;;;;;19.69;39.61;96426.00;5026441;28;20202;-79
2023/10/08 07:16:17;;;;;;;9.60;3.33;;;;;;;19.67;39.32;96433.28;5027861;28;20643;-80
2023/10/08 07:18:49;;;;;;;11.38;3.70;;;;;;;19.83;39.27;96436.75;5020521;28;20210;-80
2023/10/08 07:21:15;;;;;;;9.63;3.85;;;;;;;19.90;38.97;96438.47;5018180;28;20670;-78
2023/10/08 07:23:56;;;;;;;7.63;3.67;;;;;;;20.05;39.25;96444.53;5024559;28;20179;-79
2023/10/08 07:26:24;;;;;;;9.90;4.18;;;;;;;20.17;38.92;96449.31;5027591;28;20194;-79
2023/10/08 07:28:51;;;;;;;13.52;4.50;;;;;;;20.27;38.21;96455.13;5027854;28;20201;-78
2023/10/08 07:31:21;;;;;;;11.60;3.97;;;;;;;20.32;39.05;96468.56;5027864;28;20202;-80
2023/10/08 07:33:53;;;;;;;9.93;3.70;;;;;;;20.43;38.97;96464.63;5019885;28;20697;-80
2023/10/08 07:36:19;;;;;;;7.63;3.90;;;;;;;20.48;39.41;96467.53;5024657;28;20222;-79
2023/10/08 07:38:44;;;;;;;10.80;4.00;;;;;;;20.41;39.30;96469.25;5016317;28;20713;-79
2023/10/08 07:41:12;;;;;;;9.02;3.75;;;;;;;20.40;39.45;96467.63;5029392;28;20384;-79
2023/10/08 07:43:43;;;;;;;7.75;3.47;;;;;;;20.28;39.87;96467.28;5018847;28;20187;-79
2023/10/08 07:46:15;;;;;;;11.05;3.90;;;;;;;20.22;40.13;96463.56;5014541;28;20252;-79
2023/10/08 07:48:43;;;;;;;8.07;3.15;;;;;;;20.15;40.43;96464.53;5031365;28;20183;-79
2023/10/08 07:51:08;;;;;;;14.27;3.60;;;;;;;20.05;40.49;96463.00;5029062;28;20291;-80
2023/10/08 07:53:41;;;;;;;8.63;3.55;;;;;;;19.88;39.71;96466.81;5022001;28;20678;-79
2023/10/08 07:56:08;;;;;;;12.85;3.95;;;;;;;19.94;40.69;96473.97;5028805;28;20214;-79
2023/10/08 07:58:36;;;;;;;7.18;3.80;;;;;;;19.98;41.18;96470.00;5015277;28;20199;-79
2023/10/08 08:01:13;;;;;;;6.72;3.45;;;;;;;20.01;41.79;96466.97;5028135;28;20232;-79
2023/10/08 08:03:39;;;;;;;11.95;3.72;;;;;;;20.07;41.26;96471.53;5031004;28;20197;-80
2023/10/08 08:06:09;;;;;;;9.73;3.50;;;;;;;20.20;41.08;96470.03;5029161;28;20227;-80
2023/10/08 08:08:36;;;;;;;8.20;3.63;;;;;;;20.38;40.77;96467.81;5030482;28;20179;-80
2023/10/08 08:11:11;;;;;;;10.38;3.55;;;;;;;20.37;41.36;96471.47;5028154;28;20178;-79
2023/10/08 08:13:38;;;;;;;12.30;3.92;;;;;;;20.38;41.10;96471.25;5026034;28;20187;-79
2023/10/08 08:16:16;;;;;;;8.52;3.65;;;;;;;20.50;40.77;96466.38;5029693;28;20207;-79
2023/10/08 08:18:42;;;;;;;6.70;3.22;;;;;;;20.57;40.99;96476.97;5040124;28;21239;-79
2023/10/08 08:21:14;;;;;;;8.88;3.38;;;;;;;20.65;40.35;96492.69;5040082;28;20187;-78
2023/10/08 08:23:39;;;;;;;9.23;3.63;;;;;;;20.65;39.81;96480.31;5030736;28;20213;-78
2023/10/08 08:26:11;;;;;;;8.98;4.15;;;;;;;20.73;40.13;96497.03;5031584;28;20294;-79
2023/10/08 08:28:38;;;;;;;9.98;3.83;;;;;;;20.70;40.44;96490.31;5032688;28;20214;-78
2023/10/08 08:31:04;;;;;;;11.18;3.90;;;;;;;20.80;39.59;96493.47;5018800;28;20194;-78
2023/10/08 08:33:52;;;;;;;14.50;3.80;;;;;;;20.79;40.12;96497.09;5034428;28;20179;-79
2023/10/08 08:36:16;;;;;;;8.75;3.95;;;;;;;20.86;39.93;96508.56;5031918;28;20210;-79
2023/10/08 08:38:42;;;;;;;6.88;3.83;;;;;;;20.82;39.99;96519.66;5032594;28;20283;-80
2023/10/08 08:41:07;;;;;;;8.90;3.78;;;;;;;20.95;39.78;96529.56;5031592;28;20628;-80
2023/10/08 08:43:36;;;;;;;8.25;4.13;;;;;;;20.97;39.29;96531.00;5023817;28;20179;-80
2023/10/08 08:46:05;;;;;;;10.18;3.88;;;;;;;21.15;39.71;96533.19;5029998;28;20205;-79
2023/10/08 08:48:30;;;;;;;5.07;3.53;;;;;;;21.06;40.43;96542.25;5019534;28;20666;-79
2023/10/08 08:50:56;;;;;;;6.22;3.72;;;;;;;21.06;39.98;96550.97;5030544;28;20210;-79
2023/10/08 08:53:22;;;;;;;8.60;4.00;;;;;;;20.95;40.00;96554.13;5009754;28;20200;-79
2023/10/08 08:55:48;;;;;;;5.00;3.13;;;;;;;21.15;40.60;96549.84;5031599;28;20206;-79
2023/10/08 08:58:14;;;;;;;7.00;3.80;;;;;;;21.33;40.75;96546.78;5027107;28;20238;-79
2023/10/08 09:00:41;;;;;;;7.90;3.33;;;;;;;21.17;40.98;96539.91;5018134;28;20611;-79
2023/10/08 09:03:07;;;;;;;5.68;3.45;;;;;;;21.05;40.12;96533.50;5027330;28;20194;-80
2023/10/08 09:05:36;;;;;;;7.68;3.45;;;;;;;21.28;40.30;96535.16;5031923;28;20206;-80
2023/10/08 09:08:05;;;;;;;8.77;3.70;;;;;;;21.33;40.57;96538.03;5023904;28;20175;-80
2023/10/08 09:10:36;;;;;;;6.05;3.13;;;;;;;21.36;40.25;96546.41;5025431;28;20174;-79
2023/10/08 09:13:07;;;;;;;6.43;3.60;;;;;;;21.60;39.56;96531.97;5031675;28;20178;-79
2023/10/08 09:15:32;;;;;;;9.07;3.58;;;;;;;21.78;39.14;96534.09;5018095;28;20741;-79
2023/10/08 09:18:03;;;;;;;7.38;4.55;;;;;;;22.03;39.36;96542.41;5010870;28;20210;-80
2023/10/08 09:20:31;;;;;;;9.07;3.40;;;;;;;22.36;38.62;96541.78;5032035;28;20186;-79
2023/10/08 09:23:07;;;;;;;7.35;3.92;;;;;;;22.44;38.40;96544.25;5018415;28;20212;-79
2023/10/08 09:25:33;;;;;;;8.30;3.95;;;;;;;22.56;37.66;96540.84;5033219;28;20209;-79
2023/10/08 09:27:59;;;;;;;8.75;4.10;;;;;;;22.66;37.33;96539.66;5023722;28;20179;-80
2023/10/08 09:30:25;;;;;;;10.05;4.13;;;;;;;22.75;37.40;96544.56;5031124;28;20199;-80
2023/10/08 09:32:51;;;;;;;8.50;3.90;;;;;;;22.62;36.69;96536.59;5024970;28;20324;-79
2023/10/08 09:35:17;;;;;;;6.47;4.15;;;;;;;22.48;36.28;96545.50;5025273;28;20221;-80
2023/10/08 09:37:44;;;;;;;12.93;4.18;;;;;;;22.60;36.20;96544.72;5029959;28;20272;-80
2023/10/08 09:40:11;;;;;;;12.73;5.25;;;;;;;22.80;36.07;96539.50;5030197;28;20211;-79
2023/10/08 09:42:38;;;;;;;10.15;4.05;;;;;;;22.85;35.66;96546.88;5031297;28;20229;-79
2023/10/08 09:45:05;;;;;;;8.85;4.32;;;;;;;23.13;35.63;96541.41;5021108;28;20270;-79
2023/10/08 09:47:31;;;;;;;15.48;4.55;;;;;;;23.28;34.15;96541.22;5017037;28;20194;-80
2023/10/08 09:50:07;;;;;;;13.20;4.03;;;;;;;23.33;34.34;96534.31;5028109;28;20208;-80
2023/10/08 09:52:45;;;;;;;11.18;4.35;;;;;;;23.47;33.80;96532.47;5027468;28;20188;-80
2023/10/08 09:55:10;;;;;;;9.57;4.30;;;;;;;23.48;33.35;96534.09;5033872;28;20215;-79
2023/10/08 09:57:36;;;;;;;14.20;4.10;;;;;;;23.26;33.29;96535.31;5030686;28;20226;-80
2023/10/08 10:00:06;;;;;;;11.77;4.40;;;;;;;23.63;32.91;96544.53;5027277;28;20649;-80
2023/10/08 10:02:32;;;;;;;10.48;4.60;;;;;;;23.59;33.03;96538.81;5031498;28;20278;-80
2023/10/08 10:04:57;;;;;;;10.32;3.45;;;;;;;23.93;33.30;96544.88;5031312;28;20599;-80
2023/10/08 10:07:25;;;;;;;12.07;4.00;;;;;;;24.13;32.37;96544.88;5021122;28;20290;-80
2023/10/08 10:09:53;;;;;;;11.75;4.03;;;;;;;23.73;31.64;96539.63;5025546;28;20191;-80
2023/10/08 10:12:25;;;;;;;11.35;4.53;;;;;;;24.05;31.48;96548.56;5032304;28;20198;-80
2023/10/08 10:14:56;;;;;;;17.27;4.22;;;;;;;24.17;31.65;96546.06;5032055;28;20190;-80
2023/10/08 10:17:31;;;;;;;15.23;4.22;;;;;;;24.02;30.73;96557.72;5030184;28;20198;-80
2023/10/08 10:19:59;;;;;;;13.27;4.10;;;;;;;23.80;31.33;96561.66;5032853;28;20187;-80
2023/10/08 10:22:35;;;;;;;11.25;4.00;;;;;;;23.88;31.14;96564.09;5028476;28;20195;-80
2023/10/08 10:25:14;;;;;;;14.75;4.88;;;;;;;23.85;32.16;96568.97;5032084;28;20809;-80
2023/10/08 10:27:42;;;;;;;9.77;4.18;;;;;;;23.95;31.77;96567.56;5027940;28;20175;-80
2023/10/08 10:30:16;;;;;;;16.85;4.68;;;;;;;23.94;31.57;96563.28;5031498;28;20184;-80
2023/10/08 10:32:46;;;;;;;15.30;4.20;;;;;;;23.99;31.99;96554.69;5030339;28;20187;-80
2023/10/08 10:35:18;;;;;;;12.23;4.80;;;;;;;24.00;31.45;96565.06;5017773;28;20290;-80
2023/10/08 10:37:51;;;;;;;18.17;4.55;;;;;;;24.09;31.28;96568.31;5032343;28;20235;-79
2023/10/08 10:40:28;;;;;;;14.27;4.35;;;;;;;24.01;31.95;96571.19;5032080;28;20188;-80
2023/10/08 10:42:56;;;;;;;17.92;4.90;;;;;;;24.17;30.53;96572.59;5033202;28;20182;-80
2023/10/08 10:45:36;;;;;;;10.20;4.57;;;;;;;24.22;30.21;96570.97;5009155;28;20228;-80
2023/10/08 10:48:13;;;;;;;16.60;4.90;;;;;;;23.93;29.68;96579.38;5030848;28;20182;-80
2023/10/08 10:50:48;;;;;;;11.63;5.63;;;;;;;24.22;30.33;96565.66;5031350;28;20210;-80
2023/10/08 10:53:17;;;;;;;18.42;5.28;;;;;;;24.36;30.00;96570.94;5024840;28;20182;-80
2023/10/08 10:55:58;;;;;;;17.70;4.43;;;;;;;23.93;30.51;96569.56;5027461;28;20210;-79
2023/10/08 10:58:24;;;;;;;13.30;4.68;;;;;;;23.86;30.39;96567.97;5027452;28;20221;-80
2023/10/08 11:00:57;;;;;;;11.80;5.05;;;;;;;23.85;30.09;96569.78;5027324;28;20195;-80
2023/10/08 11:03:27;;;;;;;18.95;5.55;;;;;;;23.86;30.54;96570.63;5016618;28;20209;-80
2023/10/08 11:05:59;;;;;;;13.88;5.45;;;;;;;23.91;30.55;96565.50;5029712;28;20233;-79
2023/10/08 11:08:25;;;;;;;11.90;5.50;;;;;;;23.92;31.05;96567.13;5022241;28;20171;-79
2023/10/08 11:10:54;;;;;;;19.65;5.07;;;;;;;23.84;30.83;96560.19;5025067;28;20194;-80
2023/10/08 11:13:21;;;;;;;13.55;4.55;;;;;;;23.57;30.23;96562.03;5013043;28;20183;-79
2023/10/08 11:15:51;;;;;;;13.20;4.55;;;;;;;23.52;30.70;96568.97;5031024;28;20202;-79
2023/10/08 11:18:21;;;;;;;15.55;4.97;;;;;;;23.52;31.06;96555.72;5029133;28;20240;-80
2023/10/08 11:20:53;;;;;;;14.50;4.75;;;;;;;23.66;31.34;96557.34;5026929;28;20209;-79
2023/10/08 11:23:33;;;;;;;15.75;4.60;;;;;;;23.70;31.34;96566.56;5018623;28;20228;-80
2023/10/08 11:26:07;;;;;;;13.45;4.90;;;;;;;23.77;31.15;96572.69;5025179;28;20202;-79
2023/10/08 11:28:43;;;;;;;10.43;4.55;;;;;;;23.76;31.65;96562.25;5008798;28;20183;-79
2023/10/08 11:31:13;;;;;;;12.50;4.90;;;;;;;23.81;30.90;96565.94;5030320;28;20183;-80
2023/10/08 11:33:40;;;;;;;10.65;5.00;;;;;;;23.79;31.01;96562.66;5024757;28;20289;-80
2023/10/08 11:36:18;;;;;;;13.20;5.40;;;;;;;23.87;30.60;96562.47;5027607;28;20670;-80
2023/10/08 11:38:47;;;;;;;18.90;4.78;;;;;;;23.91;31.32;96563.66;5032915;28;20209;-80
2023/10/08 11:41:22;;;;;;;15.23;5.15;;;;;;;24.15;31.37;96556.06;5028380;28;20183;-80
2023/10/08 11:43:56;;;;;;;14.50;5.25;;;;;;;24.04;31.41;96557.53;5001353;28;20240;-79
2023/10/08 11:46:27;;;;;;;16.92;4.88;;;;;;;23.97;31.89;96552.25;5026293;28;20732;-78
2023/10/08 11:48:58;;;;;;;14.52;4.20;;;;;;;23.96;31.31;96549.78;5014430;28;20525;-79
2023/10/08 11:51:24;;;;;;;16.17;4.80;;;;;;;24.11;31.64;96537.09;5027503;28;20652;-79
2023/10/08 11:53:51;;;;;;;11.23;5.07;;;;;;;24.16;31.55;96544.44;5021439;28;20201;-80
2023/10/08 11:56:16;;;;;;;16.30;4.70;;;;;;;24.06;30.94;96542.22;5014655;28;20206;-78
2023/10/08 11:58:44;;;;;;;15.18;4.47;;;;;;;24.19;31.11;96528.09;5025563;28;20279;-79
2023/10/08 12:01:15;;;;;;;15.00;5.10;;;;;;;24.27;30.25;96535.81;5029459;28;20273;-78
2023/10/08 12:03:41;;;;;;;14.98;4.07;;;;;;;24.26;31.05;96528.88;5028302;28;20664;-79
2023/10/08 12:06:07;;;;;;;13.98;4.55;;;;;;;24.36;30.99;96523.97;5032486;28;20215;-80
2023/10/08 12:08:39;;;;;;;15.75;5.28;;;;;;;24.20;31.48;96527.88;5026440;28;20179;-79
2023/10/08 12:11:11;;;;;;;16.63;5.00;;;;;;;23.92;30.54;96520.19;5031714;28;20210;-79
2023/10/08 12:13:37;;;;;;;13.88;4.70;;;;;;;24.04;31.14;96519.56;5026879;28;20184;-79
2023/10/08 12:16:12;;;;;;;18.15;4.68;;;;;;;24.09;31.13;96527.72;5030102;28;20234;-79
2023/10/08 12:18:42;;;;;;;14.95;4.85;;;;;;;24.09;31.04;96517.09;5020631;28;20289;-79
2023/10/08 12:21:10;;;;;;;18.30;4.40;;;;;;;23.98;30.71;96522.03;5028390;28;20206;-80
2023/10/08 12:23:39;;;;;;;20.25;4.57;;;;;;;24.15;31.47;96518.94;5033002;28;20265;-79
2023/10/08 12:26:07;;;;;;;21.65;4.90;;;;;;;24.39;31.37;96509.47;5028461;28;20222;-79
2023/10/08 12:28:34;;;;;;;14.50;4.88;;;;;;;24.33;30.34;96510.31;5027286;28;20175;-79
2023/10/08 12:31:00;;;;;;;14.93;4.55;;;;;;;24.15;30.47;96508.31;5030189;28;20175;-79
2023/10/08 12:33:25;;;;;;;15.60;4.78;;;;;;;24.27;29.80;96511.94;5032519;28;20210;-79
2023/10/08 12:35:55;;;;;;;10.93;3.95;;;;;;;24.30;30.08;96511.53;5030427;28;20235;-79